Time;durP1;ratioP1;P1;durP2;ratioP2;P2;SDS_P1;SDS_P2;PMS_P1;PMS_P2;Temp;Humidity;BMP_temperature;BMP_pressure;BME280_temperature;BME280_humidity;BME280_pressure;Samples;Min_cycle;Max_cycle;Signal;HPM_P1;HPM_P2
2024/01/17 00:00:50;;;;;;;3.08;1.60;;;20.40;27.20;;;;;;5072542;28;20410;-59
2024/01/17 00:03:16;;;;;;;2.58;1.80;;;20.30;27.10;;;;;;5072892;28;20016;-58
2024/01/17 00:05:42;;;;;;;2.92;1.80;;;20.30;27.20;;;;;;5072782;28;20031;-58
2024/01/17 00:08:09;;;;;;;2.60;1.65;;;20.30;27.20;;;;;;5071517;28;20017;-59
2024/01/17 00:10:35;;;;;;;2.83;1.60;;;20.30;27.20;;;;;;5071338;28;20506;-58
2024/01/17 00:13:02;;;;;;;3.25;1.65;;;20.30;27.20;;;;;;5072468;28;20028;-56
2024/01/17 00:15:28;;;;;;;2.78;1.70;;;20.30;27.30;;;;;;5072152;28;20473;-60
2024/01/17 00:17:54;;;;;;;2.22;1.42;;;20.30;27.20;;;;;;5072405;28;20048;-60
2024/01/17 00:20:20;;;;;;;3.33;1.67;;;20.30;27.30;;;;;;5072685;28;20051;-57
2024/01/17 00:22:45;;;;;;;2.38;1.50;;;20.30;27.30;;;;;;5071585;28;20052;-59
2024/01/17 00:25:11;;;;;;;2.92;1.75;;;20.20;27.20;;;;;;5071581;28;20095;-58
2024/01/17 00:27:38;;;;;;;2.40;1.30;;;20.20;27.20;;;;;;5071294;28;20123;-56
2024/01/17 00:30:06;;;;;;;3.03;1.52;;;20.20;27.20;;;;;;5075893;28;20336;-58
2024/01/17 00:32:32;;;;;;;2.35;1.80;;;20.20;27.20;;;;;;5058406;28;20448;-58
2024/01/17 00:34:58;;;;;;;2.00;1.45;;;20.20;27.20;;;;;;5075780;28;20059;-58
2024/01/17 00:37:23;;;;;;;2.40;1.63;;;20.20;27.30;;;;;;5080688;28;20044;-59
2024/01/17 00:39:50;;;;;;;2.65;1.50;;;20.20;27.30;;;;;;5095845;28;20043;-57
2024/01/17 00:42:16;;;;;;;3.30;1.70;;;20.10;27.20;;;;;;5096820;28;20074;-58
2024/01/17 00:44:42;;;;;;;2.90;1.73;;;20.20;27.30;;;;;;5096303;28;20051;-58
2024/01/17 00:47:08;;;;;;;3.20;1.83;;;20.10;27.20;;;;;;5096730;28;20094;-57
2024/01/17 00:49:35;;;;;;;2.58;1.63;;;20.10;27.30;;;;;;5096235;28;20028;-58
2024/01/17 00:52:00;;;;;;;2.03;1.42;;;20.10;27.30;;;;;;5096246;28;20112;-58
2024/01/17 00:54:26;;;;;;;2.53;1.70;;;20.10;27.80;;;;;;5078068;28;20514;-57
2024/01/17 00:56:52;;;;;;;2.53;1.58;;;20.10;27.30;;;;;;5095798;28;20359;-61
2024/01/17 00:59:17;;;;;;;2.58;1.80;;;20.10;27.30;;;;;;5095404;28;20046;-59
2024/01/17 01:01:43;;;;;;;2.83;1.50;;;20.10;27.30;;;;;;5095959;28;20024;-58
2024/01/17 01:04:09;;;;;;;1.80;1.20;;;20.00;27.20;;;;;;5095844;28;20024;-57
2024/01/17 01:06:36;;;;;;;2.78;1.80;;;20.00;27.20;;;;;;5095894;28;20085;-60
2024/01/17 01:09:02;;;;;;;2.30;1.48;;;20.00;27.30;;;;;;5095379;28;20328;-59
2024/01/17 01:11:34;;;;;;;2.10;1.23;;;20.00;27.30;;;;;;5096059;28;20032;-59
2024/01/17 01:14:01;;;;;;;2.42;1.35;;;20.00;27.30;;;;;;5095776;28;20063;-60
2024/01/17 01:16:26;;;;;;;2.45;1.50;;;20.00;27.30;;;;;;5095622;28;20016;-58
2024/01/17 01:18:52;;;;;;;2.83;1.65;;;20.00;27.30;;;;;;5095436;28;20028;-58
2024/01/17 01:21:19;;;;;;;2.33;1.33;;;20.00;27.30;;;;;;5096046;28;20343;-57
2024/01/17 01:23:45;;;;;;;2.72;1.60;;;20.00;27.30;;;;;;5095255;28;20020;-57
2024/01/17 01:26:11;;;;;;;2.50;1.50;;;19.90;27.30;;;;;;5095821;28;20063;-59
2024/01/17 01:28:37;;;;;;;2.47;1.30;;;20.00;27.30;;;;;;5094491;28;20048;-59
2024/01/17 01:31:04;;;;;;;2.47;1.42;;;19.90;27.30;;;;;;5095923;28;20055;-57
2024/01/17 01:33:30;;;;;;;3.10;1.42;;;19.90;27.50;;;;;;5095352;28;20446;-58
2024/01/17 01:35:55;;;;;;;2.25;1.45;;;19.90;27.30;;;;;;5094773;28;20031;-59
2024/01/17 01:38:21;;;;;;;2.85;1.73;;;19.90;27.30;;;;;;5093918;28;20040;-60
2024/01/17 01:40:47;;;;;;;3.20;1.50;;;19.90;27.30;;;;;;5093794;28;20137;-57
2024/01/17 01:43:23;;;;;;;2.35;1.27;;;19.90;27.30;;;;;;5077176;28;20028;-59
2024/01/17 01:46:20;;;;;;;2.22;1.42;;;19.90;27.20;;;;;;5094927;28;20466;-58
2024/01/17 01:48:48;;;;;;;2.05;1.20;;;19.80;27.20;;;;;;5087684;28;20051;-57
2024/01/17 01:51:15;;;;;;;2.40;1.30;;;19.90;27.30;;;;;;5095335;28;20024;-55
2024/01/17 01:53:48;;;;;;;2.88;1.20;;;19.80;27.20;;;;;;5095335;28;20020;-57
2024/01/17 01:56:18;;;;;;;2.63;1.40;;;19.80;27.20;;;;;;5094964;28;20163;-59
2024/01/17 01:58:46;;;;;;;1.83;1.20;;;19.80;27.20;;;;;;5094334;28;20028;-58
2024/01/17 02:01:15;;;;;;;1.85;1.30;;;19.80;27.20;;;;;;5095013;28;20038;-57
2024/01/17 02:03:43;;;;;;;2.15;1.60;;;19.80;27.20;;;;;;5094824;28;20024;-57
2024/01/17 02:06:12;;;;;;;3.53;1.48;;;19.80;27.20;;;;;;5094559;28;20032;-58
2024/01/17 02:08:38;;;;;;;1.45;1.10;;;19.80;27.30;;;;;;5094117;28;20431;-57
2024/01/17 02:11:03;;;;;;;2.72;1.65;;;19.80;27.30;;;;;;5094592;28;20102;-57
2024/01/17 02:13:29;;;;;;;2.25;1.40;;;19.70;27.20;;;;;;5094560;28;20023;-57
2024/01/17 02:15:56;;;;;;;2.42;1.40;;;19.70;27.20;;;;;;5094642;28;20027;-57
2024/01/17 02:18:23;;;;;;;2.15;1.27;;;19.70;27.20;;;;;;5094368;28;20043;-57
2024/01/17 02:20:48;;;;;;;3.35;1.60;;;19.70;27.20;;;;;;5094203;28;20036;-58
2024/01/17 02:23:24;;;;;;;2.40;0.95;;;19.70;27.20;;;;;;5094638;28;20113;-59
2024/01/17 02:25:51;;;;;;;2.38;1.48;;;19.70;27.20;;;;;;5094760;28;20028;-56
2024/01/17 02:28:17;;;;;;;2.35;1.30;;;19.70;27.20;;;;;;5094425;28;20020;-56
2024/01/17 02:30:44;;;;;;;2.72;1.52;;;19.70;27.20;;;;;;5076148;28;20024;-58
2024/01/17 02:33:12;;;;;;;2.10;1.30;;;19.60;27.20;;;;;;5094651;28;20394;-56
2024/01/17 02:35:37;;;;;;;1.75;1.20;;;19.70;27.20;;;;;;5093907;28;20020;-56
2024/01/17 02:38:03;;;;;;;1.75;1.30;;;19.60;27.20;;;;;;5094273;28;20455;-58
2024/01/17 02:40:29;;;;;;;1.60;1.08;;;19.60;27.20;;;;;;5093473;28;20051;-57
2024/01/17 02:42:55;;;;;;;3.55;1.63;;;19.70;27.20;;;;;;5093590;28;20028;-56
2024/01/17 02:45:21;;;;;;;1.52;1.10;;;19.70;27.20;;;;;;5094727;28;20067;-58
2024/01/17 02:47:47;;;;;;;3.60;1.60;;;19.60;27.20;;;;;;5094146;28;20451;-54
2024/01/17 02:50:15;;;;;;;2.20;1.30;;;19.60;27.20;;;;;;5075955;28;20063;-58
2024/01/17 02:52:41;;;;;;;2.03;1.30;;;19.60;27.10;;;;;;5091478;28;20454;-58
2024/01/17 02:55:10;;;;;;;1.70;1.20;;;19.60;27.20;;;;;;5093947;28;20023;-55
2024/01/17 02:57:36;;;;;;;2.00;1.20;;;19.60;27.10;;;;;;5093785;28;20035;-55
2024/01/17 03:00:01;;;;;;;1.50;1.20;;;19.60;27.20;;;;;;5093196;28;20401;-59
2024/01/17 03:02:27;;;;;;;2.15;1.48;;;19.50;27.10;;;;;;5093730;28;20081;-56
2024/01/17 03:04:53;;;;;;;1.77;1.20;;;19.50;27.10;;;;;;5093935;28;20031;-58
2024/01/17 03:07:19;;;;;;;2.17;1.25;;;19.50;27.10;;;;;;5093839;28;20024;-58
2024/01/17 03:09:44;;;;;;;1.85;1.20;;;19.50;27.10;;;;;;5091748;28;20027;-58
2024/01/17 03:12:10;;;;;;;2.83;1.40;;;19.50;27.10;;;;;;5093124;28;20020;-58
2024/01/17 03:14:36;;;;;;;3.03;1.45;;;19.50;27.10;;;;;;5093237;28;20032;-56
2024/01/17 03:17:02;;;;;;;2.30;1.35;;;19.50;27.10;;;;;;5092971;28;20343;-57
2024/01/17 03:19:28;;;;;;;1.80;1.20;;;19.50;27.10;;;;;;5092631;28;20126;-60
2024/01/17 03:21:54;;;;;;;2.72;1.45;;;19.50;27.10;;;;;;5093737;28;20500;-58
2024/01/17 03:24:20;;;;;;;4.57;1.60;;;19.40;27.10;;;;;;5093388;28;20024;-58
2024/01/17 03:26:46;;;;;;;1.73;1.30;;;19.50;27.10;;;;;;5093723;28;20115;-57
2024/01/17 03:29:11;;;;;;;3.40;1.45;;;19.40;27.00;;;;;;5075590;28;20051;-59
2024/01/17 03:31:37;;;;;;;2.58;1.60;;;19.40;27.00;;;;;;5093726;28;20027;-57
2024/01/17 03:34:03;;;;;;;2.08;1.30;;;19.40;27.00;;;;;;5092992;28;20417;-57
2024/01/17 03:36:29;;;;;;;2.38;1.38;;;19.40;27.00;;;;;;5075627;28;20039;-60
2024/01/17 03:38:55;;;;;;;2.03;1.35;;;19.40;27.00;;;;;;5074596;28;20511;-57
2024/01/17 03:41:21;;;;;;;2.72;1.60;;;19.40;27.00;;;;;;5092828;28;20359;-58
2024/01/17 03:43:48;;;;;;;2.70;1.23;;;19.40;27.00;;;;;;5093540;28;20020;-57
2024/01/17 03:46:13;;;;;;;2.38;1.40;;;19.40;27.00;;;;;;5092805;28;20028;-57
2024/01/17 03:48:39;;;;;;;3.05;1.60;;;19.40;27.00;;;;;;5092670;28;20062;-55
2024/01/17 03:51:05;;;;;;;2.75;1.50;;;19.40;27.00;;;;;;5075453;28;20028;-56
2024/01/17 03:53:31;;;;;;;3.53;1.77;;;19.40;27.00;;;;;;5093017;28;20381;-57
2024/01/17 03:55:57;;;;;;;3.33;1.63;;;19.40;27.00;;;;;;5093433;28;20031;-57
2024/01/17 03:58:22;;;;;;;3.28;1.60;;;19.40;27.00;;;;;;5093109;28;20470;-57
2024/01/17 04:00:48;;;;;;;2.50;1.50;;;19.40;27.00;;;;;;5092784;28;20066;-59
2024/01/17 04:03:14;;;;;;;2.55;1.48;;;19.30;27.00;;;;;;5089705;28;20118;-58
2024/01/17 04:05:43;;;;;;;2.20;1.42;;;19.30;27.00;;;;;;5093433;28;20024;-58
2024/01/17 04:08:09;;;;;;;2.92;1.40;;;19.30;26.90;;;;;;5092992;28;20027;-57
2024/01/17 04:10:35;;;;;;;2.20;1.40;;;19.30;26.90;;;;;;5092090;28;20031;-58
2024/01/17 04:13:00;;;;;;;1.85;1.38;;;19.30;26.90;;;;;;5093038;28;20047;-56
2024/01/17 04:15:27;;;;;;;2.53;1.27;;;19.30;27.00;;;;;;5092441;28;20118;-57
2024/01/17 04:17:52;;;;;;;2.63;1.45;;;19.30;27.00;;;;;;5092804;28;20020;-56
2024/01/17 04:20:19;;;;;;;3.72;1.75;;;19.30;27.00;;;;;;5091734;28;20043;-57
2024/01/17 04:22:45;;;;;;;1.90;1.23;;;19.30;27.00;;;;;;5090302;28;20016;-56
2024/01/17 04:25:11;;;;;;;2.08;1.45;;;19.20;26.90;;;;;;5092469;28;20024;-56
2024/01/17 04:27:37;;;;;;;2.35;1.50;;;19.20;26.90;;;;;;5093270;28;20405;-56
2024/01/17 04:30:05;;;;;;;3.92;2.00;;;19.30;27.00;;;;;;5091768;28;20062;-59
2024/01/17 04:32:35;;;;;;;2.53;1.50;;;19.20;26.90;;;;;;5093077;28;20024;-58
2024/01/17 04:35:00;;;;;;;2.47;1.40;;;19.20;26.90;;;;;;5092325;28;20103;-58
2024/01/17 04:37:27;;;;;;;3.10;1.45;;;19.20;26.90;;;;;;5092840;28;20119;-57
2024/01/17 04:39:52;;;;;;;2.08;1.40;;;19.20;26.90;;;;;;5091673;28;20055;-58
2024/01/17 04:42:18;;;;;;;2.05;1.30;;;19.20;26.90;;;;;;5092476;28;20347;-58
2024/01/17 04:44:45;;;;;;;1.85;1.30;;;19.20;26.90;;;;;;5092970;28;20032;-56
2024/01/17 04:47:14;;;;;;;2.15;1.25;;;19.20;26.90;;;;;;5091611;28;20020;-58
2024/01/17 04:49:40;;;;;;;1.63;1.33;;;19.20;26.90;;;;;;5089543;28;20040;-56
2024/01/17 04:52:06;;;;;;;2.22;1.40;;;19.20;26.90;;;;;;5092847;28;20020;-58
2024/01/17 04:54:32;;;;;;;2.63;1.38;;;19.20;26.90;;;;;;5092554;28;20024;-58
2024/01/17 04:56:58;;;;;;;2.20;1.40;;;19.10;26.90;;;;;;5092498;28;20043;-57
2024/01/17 04:59:23;;;;;;;2.10;1.50;;;19.10;26.90;;;;;;5092159;28;20363;-57
2024/01/17 05:01:49;;;;;;;2.47;1.50;;;19.10;26.90;;;;;;5092608;28;20107;-59
2024/01/17 05:04:15;;;;;;;2.25;1.33;;;19.10;26.90;;;;;;5092572;28;20466;-55
2024/01/17 05:06:41;;;;;;;2.13;1.40;;;19.10;26.90;;;;;;5092257;28;20470;-56
2024/01/17 05:09:07;;;;;;;2.55;1.70;;;19.10;26.90;;;;;;5074335;28;20382;-53
2024/01/17 05:11:33;;;;;;;2.30;1.45;;;19.10;26.90;;;;;;5092544;28;20039;-57
2024/01/17 05:13:59;;;;;;;2.33;1.35;;;19.10;26.90;;;;;;5092283;28;20020;-56
2024/01/17 05:16:25;;;;;;;1.90;1.45;;;19.10;26.90;;;;;;5095944;28;20103;-57
2024/01/17 05:18:51;;;;;;;2.45;1.38;;;19.10;27.10;;;;;;5095916;28;20031;-57
2024/01/17 05:21:17;;;;;;;2.28;1.60;;;19.10;26.90;;;;;;5094987;28;20446;-56
2024/01/17 05:23:42;;;;;;;1.90;1.50;;;19.00;26.90;;;;;;5095731;28;20354;-56
2024/01/17 05:26:08;;;;;;;2.05;1.50;;;19.10;26.90;;;;;;5095888;28;20032;-58
2024/01/17 05:28:35;;;;;;;2.60;1.60;;;19.10;26.90;;;;;;5095100;28;20020;-60
2024/01/17 05:31:01;;;;;;;1.70;1.30;;;19.00;26.90;;;;;;5094892;28;20028;-58
2024/01/17 05:33:27;;;;;;;3.38;1.70;;;19.10;27.00;;;;;;5095417;28;20342;-54
2024/01/17 05:35:52;;;;;;;2.05;1.30;;;19.00;26.90;;;;;;5095653;28;20090;-60
2024/01/17 05:38:18;;;;;;;2.53;1.52;;;19.00;26.90;;;;;;5082705;28;20048;-58
2024/01/17 05:40:44;;;;;;;2.97;1.63;;;19.00;27.00;;;;;;5074589;28;20033;-57
2024/01/17 05:43:10;;;;;;;2.15;1.30;;;19.00;26.90;;;;;;5074691;28;20055;-54
2024/01/17 05:45:36;;;;;;;2.08;1.25;;;19.00;26.90;;;;;;5075304;28;20082;-56
2024/01/17 05:48:02;;;;;;;2.20;1.42;;;19.00;27.00;;;;;;5074965;28;20029;-56
2024/01/17 05:50:28;;;;;;;2.92;1.40;;;19.00;27.00;;;;;;5074676;28;20099;-56
2024/01/17 05:52:54;;;;;;;2.40;1.40;;;19.00;27.00;;;;;;5074658;28;20021;-57
2024/01/17 05:55:20;;;;;;;2.13;1.35;;;18.90;26.90;;;;;;5074377;28;20340;-56
2024/01/17 05:57:46;;;;;;;2.00;1.42;;;19.00;27.00;;;;;;5074472;28;20352;-58
2024/01/17 06:00:12;;;;;;;2.67;1.60;;;19.00;27.00;;;;;;5073737;28;20036;-56
2024/01/17 06:02:39;;;;;;;2.05;1.55;;;18.90;26.90;;;;;;5074595;28;20048;-59
2024/01/17 06:05:07;;;;;;;2.28;1.63;;;18.90;27.00;;;;;;5068725;28;20031;-57
2024/01/17 06:07:33;;;;;;;2.00;1.50;;;18.90;27.00;;;;;;5073526;28;20044;-57
2024/01/17 06:10:00;;;;;;;2.78;1.73;;;18.90;27.00;;;;;;5074032;28;20451;-54
2024/01/17 06:12:25;;;;;;;2.85;1.60;;;18.90;27.00;;;;;;5074464;28;20028;-56
2024/01/17 06:14:51;;;;;;;2.42;1.27;;;18.90;27.00;;;;;;5074735;28;20025;-56
2024/01/17 06:17:17;;;;;;;1.65;1.33;;;18.90;27.00;;;;;;5074748;28;20044;-58
2024/01/17 06:19:43;;;;;;;2.90;1.63;;;18.90;27.00;;;;;;5072856;28;20033;-56
2024/01/17 06:22:09;;;;;;;3.60;1.50;;;18.90;27.00;;;;;;5072921;28;20378;-56
2024/01/17 06:24:35;;;;;;;2.10;1.42;;;18.90;27.00;;;;;;5073628;28;20143;-57
2024/01/17 06:27:02;;;;;;;2.65;1.50;;;18.90;27.00;;;;;;5073046;28;20051;-55
2024/01/17 06:29:30;;;;;;;2.55;1.52;;;18.90;27.00;;;;;;5072843;28;20414;-57
2024/01/17 06:31:56;;;;;;;2.90;1.60;;;18.80;26.90;;;;;;5073444;28;20104;-57
2024/01/17 06:34:22;;;;;;;2.10;1.40;;;18.80;27.00;;;;;;5073819;28;20025;-58
2024/01/17 06:36:48;;;;;;;2.22;1.40;;;18.80;27.00;;;;;;5073322;28;20033;-54
2024/01/17 06:39:16;;;;;;;2.10;1.52;;;18.90;27.00;;;;;;5090166;28;20485;-56
2024/01/17 06:41:43;;;;;;;2.38;1.50;;;18.80;27.00;;;;;;5093315;28;21492;-53
2024/01/17 06:44:09;;;;;;;2.50;1.48;;;18.80;27.00;;;;;;5093329;28;20020;-57
2024/01/17 06:46:36;;;;;;;2.47;1.35;;;18.80;27.00;;;;;;5093818;28;20032;-56
2024/01/17 06:49:02;;;;;;;2.15;1.50;;;18.80;27.00;;;;;;5093094;28;20517;-54
2024/01/17 06:51:28;;;;;;;3.13;1.52;;;18.80;27.00;;;;;;5092616;28;20035;-60
2024/01/17 06:53:54;;;;;;;2.20;1.58;;;18.80;26.90;;;;;;5093306;28;20032;-58
2024/01/17 06:56:20;;;;;;;1.98;1.15;;;18.80;26.90;;;;;;5093526;28;20039;-56
2024/01/17 06:58:46;;;;;;;2.35;1.50;;;18.80;26.90;;;;;;5093195;28;20123;-56
2024/01/17 07:01:11;;;;;;;2.47;1.63;;;18.80;27.00;;;;;;5093358;28;20039;-56
2024/01/17 07:03:37;;;;;;;2.25;1.70;;;18.80;26.90;;;;;;5093364;28;20024;-58
2024/01/17 07:06:06;;;;;;;2.08;1.55;;;18.70;26.90;;;;;;5093066;28;20027;-57
2024/01/17 07:08:32;;;;;;;2.58;1.52;;;18.80;26.90;;;;;;5093228;28;20044;-57
2024/01/17 07:10:57;;;;;;;2.60;1.65;;;18.70;26.90;;;;;;5092491;28;20056;-56
2024/01/17 07:13:23;;;;;;;2.75;1.60;;;18.70;26.90;;;;;;5093002;28;20110;-57
2024/01/17 07:15:49;;;;;;;2.70;1.80;;;18.70;26.90;;;;;;5093305;28;20043;-59
2024/01/17 07:18:15;;;;;;;2.25;1.63;;;18.70;26.90;;;;;;5093466;28;20035;-57
2024/01/17 07:20:40;;;;;;;1.88;1.38;;;18.70;26.90;;;;;;5092743;28;20039;-57
2024/01/17 07:23:08;;;;;;;2.70;1.73;;;18.70;27.00;;;;;;5092416;28;20085;-56
2024/01/17 07:25:34;;;;;;;2.88;1.60;;;18.70;27.00;;;;;;5093003;28;20371;-58
2024/01/17 07:28:00;;;;;;;3.03;1.38;;;18.70;27.00;;;;;;5093091;28;20020;-58
2024/01/17 07:30:26;;;;;;;1.95;1.30;;;18.70;27.00;;;;;;5092484;28;20024;-58
2024/01/17 07:32:52;;;;;;;2.75;1.60;;;18.70;27.00;;;;;;5092482;28;20362;-58
2024/01/17 07:35:18;;;;;;;2.20;1.33;;;18.70;27.00;;;;;;5092735;28;20158;-57
2024/01/17 07:37:44;;;;;;;1.80;1.40;;;18.60;26.90;;;;;;5091289;28;20123;-59
2024/01/17 07:40:10;;;;;;;2.40;1.65;;;18.70;26.90;;;;;;5092021;28;20136;-58
2024/01/17 07:42:36;;;;;;;2.45;1.70;;;18.70;26.90;;;;;;5092005;28;20448;-55
2024/01/17 07:45:02;;;;;;;2.35;1.70;;;18.70;26.90;;;;;;5092096;28;20086;-57
2024/01/17 07:47:27;;;;;;;2.55;1.65;;;18.60;26.90;;;;;;5092637;28;20020;-54
2024/01/17 07:49:55;;;;;;;2.33;1.63;;;18.60;26.90;;;;;;5092383;28;20028;-56
2024/01/17 07:52:20;;;;;;;2.50;1.77;;;18.60;26.90;;;;;;5092903;28;20047;-55
2024/01/17 07:54:46;;;;;;;2.88;1.77;;;18.60;26.90;;;;;;5084397;28;20525;-55
2024/01/17 07:57:12;;;;;;;1.92;1.30;;;18.60;26.90;;;;;;5113330;28;20034;-58
2024/01/17 07:59:38;;;;;;;2.45;1.40;;;18.60;26.90;;;;;;5113336;28;20040;-56
2024/01/17 08:02:04;;;;;;;1.60;1.25;;;18.60;26.90;;;;;;5113025;28;20361;-57
2024/01/17 08:04:30;;;;;;;2.67;1.50;;;18.60;26.90;;;;;;5112688;28;20354;-55
2024/01/17 08:06:56;;;;;;;1.98;1.30;;;18.60;27.00;;;;;;5113972;28;20353;-57
2024/01/17 08:09:22;;;;;;;1.95;1.38;;;18.60;27.00;;;;;;5094939;28;20031;-56
2024/01/17 08:11:49;;;;;;;2.55;1.70;;;18.60;27.00;;;;;;5113621;28;20028;-58
2024/01/17 08:14:15;;;;;;;2.92;1.70;;;18.60;27.00;;;;;;5112004;28;20127;-55
2024/01/17 08:16:41;;;;;;;2.40;1.40;;;18.60;27.00;;;;;;5113532;28;20103;-57
2024/01/17 08:19:07;;;;;;;2.60;1.42;;;18.60;27.00;;;;;;5115661;28;20024;-58
2024/01/17 08:21:32;;;;;;;4.70;1.50;;;18.60;27.00;;;;;;5112821;28;21487;-59
2024/01/17 08:23:59;;;;;;;1.98;1.35;;;18.60;27.10;;;;;;5112455;28;20028;-57
2024/01/17 08:26:25;;;;;;;2.20;1.48;;;18.60;27.10;;;;;;5112390;28;20366;-58
2024/01/17 08:28:51;;;;;;;2.63;1.40;;;18.60;27.10;;;;;;5112344;28;20031;-57
2024/01/17 08:31:17;;;;;;;1.60;1.40;;;18.60;27.10;;;;;;5113306;28;20051;-59
2024/01/17 08:33:43;;;;;;;2.40;1.60;;;18.60;27.00;;;;;;5112668;28;20096;-53
2024/01/17 08:36:08;;;;;;;1.30;1.15;;;18.70;27.10;;;;;;5113253;28;20024;-57
2024/01/17 08:38:35;;;;;;;2.10;1.40;;;18.70;27.10;;;;;;5119761;28;20071;-55
2024/01/17 08:41:01;;;;;;;2.13;1.33;;;18.80;27.10;;;;;;5112178;28;20336;-56
2024/01/17 08:43:26;;;;;;;2.63;1.52;;;18.80;27.10;;;;;;5112916;28;20059;-57
2024/01/17 08:45:52;;;;;;;2.33;1.27;;;18.90;27.10;;;;;;5115147;28;20042;-54
2024/01/17 08:48:19;;;;;;;2.25;1.20;;;18.90;27.10;;;;;;5111997;28;20039;-60
2024/01/17 08:50:45;;;;;;;1.85;1.15;;;19.00;27.10;;;;;;5116939;28;20101;-55
2024/01/17 08:53:11;;;;;;;2.95;1.48;;;19.10;27.10;;;;;;5116644;28;20032;-58
2024/01/17 08:55:36;;;;;;;2.30;1.50;;;19.10;27.10;;;;;;5116435;28;20032;-59
2024/01/17 08:58:02;;;;;;;1.73;1.20;;;19.20;27.00;;;;;;5115816;28;20126;-59
2024/01/17 09:00:28;;;;;;;1.90;1.27;;;19.30;27.00;;;;;;5116112;28;20040;-59
2024/01/17 09:02:54;;;;;;;2.15;1.25;;;19.40;27.00;;;;;;5116020;28;20417;-59
2024/01/17 09:05:21;;;;;;;2.28;1.40;;;19.40;27.00;;;;;;5114812;28;20178;-58
2024/01/17 09:07:49;;;;;;;1.85;1.20;;;19.50;26.90;;;;;;5116253;28;20020;-58
2024/01/17 09:10:17;;;;;;;2.03;1.23;;;19.60;26.90;;;;;;5115696;28;20030;-58
2024/01/17 09:12:44;;;;;;;1.92;1.30;;;19.70;26.90;;;;;;5116612;28;20038;-60
2024/01/17 09:15:10;;;;;;;2.35;1.30;;;19.70;26.80;;;;;;5118511;28;20130;-56
2024/01/17 09:17:36;;;;;;;2.80;1.38;;;19.80;26.80;;;;;;5117256;28;20434;-58
2024/01/17 09:20:06;;;;;;;1.98;1.30;;;19.90;26.80;;;;;;5116196;28;20074;-58
2024/01/17 09:22:32;;;;;;;1.80;1.30;;;19.90;26.80;;;;;;5115686;28;20130;-58
2024/01/17 09:25:01;;;;;;;1.98;1.48;;;20.00;26.80;;;;;;5114975;28;20027;-59
2024/01/17 09:27:28;;;;;;;2.55;1.52;;;20.10;26.80;;;;;;5114468;28;20027;-58
2024/01/17 09:29:54;;;;;;;2.38;1.20;;;20.20;26.70;;;;;;5098016;28;20467;-58
2024/01/17 09:32:19;;;;;;;2.88;1.50;;;20.20;26.70;;;;;;5115664;28;20103;-62
2024/01/17 09:34:47;;;;;;;1.85;1.33;;;20.30;26.70;;;;;;5115923;28;20098;-60
2024/01/17 09:37:17;;;;;;;3.08;1.35;;;20.40;26.70;;;;;;5116195;28;20127;-58
2024/01/17 09:39:45;;;;;;;2.92;1.55;;;20.40;26.70;;;;;;5116425;28;20088;-57
2024/01/17 09:42:14;;;;;;;1.77;1.10;;;20.50;26.70;;;;;;5095499;28;20064;-56
2024/01/17 09:44:40;;;;;;;2.25;1.25;;;20.60;26.70;;;;;;5116382;28;20453;-59
2024/01/17 09:47:08;;;;;;;1.80;1.13;;;20.60;26.60;;;;;;5116608;28;20028;-59
2024/01/17 09:49:35;;;;;;;2.95;1.45;;;20.70;26.60;;;;;;5116250;28;20023;-55
2024/01/17 09:52:05;;;;;;;3.85;1.30;;;20.70;26.50;;;;;;5116521;28;20164;-60
2024/01/17 09:54:37;;;;;;;2.05;1.20;;;20.80;26.50;;;;;;5116161;28;20320;-58
2024/01/17 09:57:08;;;;;;;2.10;1.30;;;20.90;26.50;;;;;;5116284;28;20106;-59
2024/01/17 09:59:44;;;;;;;2.20;1.40;;;20.90;26.40;;;;;;5115912;28;20067;-59
2024/01/17 10:02:10;;;;;;;2.15;1.13;;;21.00;26.40;;;;;;5115371;28;20054;-59
2024/01/17 10:04:36;;;;;;;2.35;1.52;;;21.00;26.40;;;;;;5115513;28;20031;-58
2024/01/17 10:07:02;;;;;;;2.58;1.52;;;21.10;26.40;;;;;;5113481;28;20035;-57
2024/01/17 10:09:29;;;;;;;1.95;1.52;;;21.10;26.30;;;;;;5116024;28;20374;-58
2024/01/17 10:11:54;;;;;;;2.05;1.40;;;21.20;26.30;;;;;;5116148;28;20030;-59
2024/01/17 10:14:23;;;;;;;2.15;1.35;;;21.20;26.20;;;;;;5115221;28;20044;-59
2024/01/17 10:16:49;;;;;;;1.73;1.30;;;21.30;26.20;;;;;;5115880;28;20019;-57
2024/01/17 10:19:16;;;;;;;1.85;1.17;;;21.30;26.70;;;;;;5098004;28;20089;-58
2024/01/17 10:21:43;;;;;;;3.45;1.60;;;21.30;26.20;;;;;;5116007;28;20081;-60
2024/01/17 10:24:10;;;;;;;2.67;1.20;;;21.30;26.20;;;;;;5115375;28;20053;-56
2024/01/17 10:26:43;;;;;;;3.05;1.55;;;21.40;26.10;;;;;;5115642;28;20028;-59
2024/01/17 10:29:11;;;;;;;1.98;1.35;;;21.40;26.10;;;;;;5115382;28;20087;-60
2024/01/17 10:31:44;;;;;;;2.00;1.38;;;21.40;26.00;;;;;;5116200;28;20315;-59
2024/01/17 10:34:10;;;;;;;2.35;1.40;;;21.50;26.00;;;;;;5115311;28;20027;-58
2024/01/17 10:36:41;;;;;;;2.97;1.45;;;21.50;26.00;;;;;;5115486;28;20450;-59
2024/01/17 10:39:07;;;;;;;2.72;1.48;;;21.50;26.00;;;;;;5113216;28;20062;-60
2024/01/17 10:41:32;;;;;;;1.98;1.20;;;21.50;26.00;;;;;;5113680;28;20028;-58
2024/01/17 10:44:04;;;;;;;2.67;1.42;;;21.60;26.00;;;;;;5114262;28;20031;-63
2024/01/17 10:46:30;;;;;;;2.38;1.33;;;21.60;26.20;;;;;;5114140;28;20043;-60
2024/01/17 10:48:58;;;;;;;2.28;1.40;;;21.70;26.20;;;;;;5114163;28;20391;-60
2024/01/17 10:51:24;;;;;;;2.38;1.40;;;21.80;26.20;;;;;;5115312;28;20024;-61
2024/01/17 10:53:53;;;;;;;2.75;1.70;;;21.70;26.20;;;;;;5115143;28;20109;-61
2024/01/17 10:56:20;;;;;;;3.58;1.42;;;21.80;26.30;;;;;;5111343;28;20035;-61
2024/01/17 10:58:55;;;;;;;2.67;1.75;;;21.70;26.20;;;;;;5112389;28;20046;-61
2024/01/17 11:01:37;;;;;;;2.30;1.70;;;21.70;26.20;;;;;;5113329;28;20118;-60
2024/01/17 11:04:28;;;;;;;4.97;1.55;;;21.70;26.30;;;;;;5113876;28;20024;-61
2024/01/17 11:06:55;;;;;;;3.63;1.60;;;21.70;26.30;;;;;;5094863;28;20042;-61
2024/01/17 11:09:22;;;;;;;2.92;1.80;;;21.70;26.40;;;;;;5114507;28;20099;-60
2024/01/17 11:11:49;;;;;;;3.40;1.35;;;21.60;26.40;;;;;;5114633;28;20451;-59
2024/01/17 11:14:16;;;;;;;2.55;1.55;;;21.60;26.40;;;;;;5114469;28;20047;-61
2024/01/17 11:16:48;;;;;;;2.00;1.30;;;21.60;26.30;;;;;;5114731;28;20062;-61
2024/01/17 11:19:15;;;;;;;2.47;1.80;;;21.60;26.30;;;;;;5112672;28;20035;-61
2024/01/17 11:21:42;;;;;;;3.17;1.70;;;21.60;26.40;;;;;;5114856;28;20486;-62
2024/01/17 11:24:23;;;;;;;2.83;1.70;;;21.50;26.30;;;;;;5113532;28;20079;-64
2024/01/17 11:26:52;;;;;;;2.22;1.55;;;21.50;26.30;;;;;;5112207;28;20053;-60
2024/01/17 11:29:55;;;;;;;3.15;1.88;;;21.50;26.40;;;;;;5111178;28;20023;-59
2024/01/17 11:32:24;;;;;;;2.30;1.55;;;21.50;26.50;;;;;;5111593;28;20111;-59
2024/01/17 11:34:50;;;;;;;2.90;1.73;;;21.40;26.50;;;;;;5113067;28;20015;-58
2024/01/17 11:37:34;;;;;;;2.13;1.40;;;21.40;26.50;;;;;;5113428;28;20039;-60
2024/01/17 11:40:01;;;;;;;2.97;1.77;;;21.40;26.60;;;;;;5110733;28;20047;-58
2024/01/17 11:42:27;;;;;;;3.30;1.42;;;21.30;27.00;;;;;;5113257;28;20110;-59
2024/01/17 11:44:53;;;;;;;2.25;1.35;;;21.40;26.60;;;;;;5113389;28;20106;-60
2024/01/17 11:47:22;;;;;;;2.08;1.40;;;21.30;26.50;;;;;;5112969;28;20635;-58
2024/01/17 11:49:50;;;;;;;2.00;1.38;;;21.30;26.50;;;;;;5112324;28;20027;-56
2024/01/17 11:52:27;;;;;;;2.88;1.67;;;21.30;26.50;;;;;;5112602;28;20035;-56
2024/01/17 11:54:53;;;;;;;2.33;1.60;;;21.30;26.50;;;;;;5111741;28;20134;-57
2024/01/17 11:57:19;;;;;;;2.53;1.67;;;21.30;26.50;;;;;;5113046;28;20038;-60
2024/01/17 12:00:04;;;;;;;2.58;1.92;;;21.20;26.40;;;;;;5112183;28;20120;-59
2024/01/17 12:02:48;;;;;;;3.25;1.70;;;21.20;26.40;;;;;;5112168;28;20028;-58
2024/01/17 12:05:13;;;;;;;2.53;1.63;;;21.20;26.40;;;;;;5111706;28;20024;-56
2024/01/17 12:07:49;;;;;;;2.55;1.48;;;21.20;26.40;;;;;;5112836;28;20035;-59
2024/01/17 12:10:15;;;;;;;2.28;1.70;;;21.10;26.40;;;;;;5112043;28;20023;-58
2024/01/17 12:12:45;;;;;;;2.58;1.65;;;21.10;26.40;;;;;;5112711;28;20035;-60
2024/01/17 12:15:12;;;;;;;3.40;1.75;;;21.10;26.40;;;;;;5111455;28;20027;-61
2024/01/17 12:17:39;;;;;;;2.80;1.42;;;21.10;26.40;;;;;;5112858;28;20031;-59
2024/01/17 12:20:07;;;;;;;3.75;1.65;;;21.10;26.40;;;;;;5095132;28;20461;-60
2024/01/17 12:22:34;;;;;;;2.97;1.52;;;21.10;26.40;;;;;;5112686;28;20063;-62
2024/01/17 12:25:00;;;;;;;3.13;1.60;;;21.10;26.50;;;;;;5116977;28;20027;-61
2024/01/17 12:27:30;;;;;;;3.40;1.85;;;21.10;26.50;;;;;;5117512;28;20334;-60
2024/01/17 12:30:07;;;;;;;5.13;2.10;;;21.00;26.60;;;;;;5117763;28;20038;-62
2024/01/17 12:32:36;;;;;;;3.40;1.90;;;21.00;26.90;;;;;;5116917;28;20051;-61
2024/01/17 12:35:03;;;;;;;3.47;2.40;;;21.00;27.30;;;;;;5114188;28;20118;-59
2024/01/17 12:37:29;;;;;;;6.03;2.75;;;21.00;27.70;;;;;;5116263;28;20472;-60
2024/01/17 12:39:55;;;;;;;3.83;2.40;;;21.00;28.20;;;;;;5118751;28;20067;-59
2024/01/17 12:42:21;;;;;;;3.47;1.98;;;21.00;28.30;;;;;;5118477;28;20418;-60
2024/01/17 12:44:47;;;;;;;3.08;2.15;;;21.00;28.30;;;;;;5111768;27;20023;-60
2024/01/17 12:47:13;;;;;;;4.53;2.20;;;21.00;28.20;;;;;;5106300;28;20033;-58